Time;durP1;ratioP1;P1;durP2;ratioP2;P2;SDS_P1;SDS_P2;PMS_P1;PMS_P2;Temp;Humidity;BMP_temperature;BMP_pressure;BME280_temperature;BME280_humidity;BME280_pressure;Samples;Min_cycle;Max_cycle;Signal;HPM_P1;HPM_P2
2022/03/14 00:01:16;;;;;;;26.17;14.70;;;7.50;98.40;;;;;;4967747;28;20530;-71
2022/03/14 00:03:50;;;;;;;29.77;15.53;;;7.50;98.30;;;;;;4980187;28;20455;-71
2022/03/14 00:06:17;;;;;;;25.87;15.40;;;7.50;98.40;;;;;;4989189;28;20483;-71
2022/03/14 00:08:45;;;;;;;30.17;17.00;;;7.50;98.40;;;;;;4973098;28;20487;-71
2022/03/14 00:11:14;;;;;;;26.97;16.13;;;7.50;98.90;;;;;;4974121;28;20464;-71
2022/03/14 00:13:42;;;;;;;31.90;14.80;;;7.50;98.60;;;;;;4973781;28;20575;-71
2022/03/14 00:16:09;;;;;;;27.23;15.50;;;7.50;98.60;;;;;;4974163;28;20856;-71
2022/03/14 00:18:36;;;;;;;24.50;16.00;;;7.60;98.50;;;;;;4973576;28;20908;-71
2022/03/14 00:21:05;;;;;;;24.80;15.10;;;7.60;98.80;;;;;;4990995;28;20463;-71
2022/03/14 00:23:31;;;;;;;27.07;16.27;;;7.60;98.60;;;;;;4993396;28;20505;-71
2022/03/14 00:26:00;;;;;;;25.70;15.70;;;7.60;98.90;;;;;;4974015;28;20460;-71
2022/03/14 00:28:27;;;;;;;24.93;16.00;;;7.60;98.90;;;;;;4973876;28;20510;-71
2022/03/14 00:30:53;;;;;;;30.67;16.00;;;7.60;99.10;;;;;;4974130;28;20832;-71
2022/03/14 00:33:20;;;;;;;30.17;17.17;;;7.70;99.60;;;;;;4987431;28;21169;-71
2022/03/14 00:35:46;;;;;;;24.47;15.10;;;7.60;99.50;;;;;;4973084;28;20487;-71
2022/03/14 00:38:14;;;;;;;29.60;16.10;;;7.70;99.60;;;;;;4970895;28;20949;-71
2022/03/14 00:40:41;;;;;;;29.00;15.80;;;7.70;99.50;;;;;;4973487;28;20620;-71
2022/03/14 00:43:09;;;;;;;24.87;15.07;;;7.70;99.50;;;;;;4973555;28;20456;-71
2022/03/14 00:45:36;;;;;;;26.83;16.30;;;7.70;99.70;;;;;;4980564;28;20490;-71
2022/03/14 00:48:02;;;;;;;37.20;18.27;;;7.70;99.70;;;;;;4973572;28;20472;-71
2022/03/14 00:50:29;;;;;;;31.60;17.53;;;7.60;99.80;;;;;;4973202;28;20483;-71
2022/03/14 00:52:56;;;;;;;29.87;15.70;;;7.60;99.50;;;;;;4973163;28;20531;-71
2022/03/14 00:55:22;;;;;;;26.63;14.43;;;7.60;99.90;;;;;;4973225;28;20510;-71
2022/03/14 00:57:49;;;;;;;21.20;13.60;;;7.60;99.60;;;;;;4972971;28;20542;-71
2022/03/14 01:00:17;;;;;;;22.73;13.73;;;7.60;99.50;;;;;;4973395;28;20617;-71
2022/03/14 01:02:48;;;;;;;22.87;14.40;;;7.60;98.20;;;;;;4973227;28;20452;-71
2022/03/14 01:05:14;;;;;;;29.17;14.83;;;7.50;97.80;;;;;;4972711;28;20463;-71
2022/03/14 01:07:41;;;;;;;22.13;13.37;;;7.50;98.00;;;;;;4980507;28;21049;-71
2022/03/14 01:10:08;;;;;;;21.67;12.40;;;7.50;97.80;;;;;;4992254;28;20529;-71
2022/03/14 01:12:35;;;;;;;22.60;13.27;;;7.50;97.70;;;;;;4992540;28;20466;-71
2022/03/14 01:15:02;;;;;;;21.63;13.30;;;7.50;97.80;;;;;;4981340;28;20965;-71
2022/03/14 01:17:30;;;;;;;26.03;15.07;;;7.50;98.10;;;;;;4972742;28;21021;-71
2022/03/14 01:19:57;;;;;;;27.97;14.53;;;7.50;98.00;;;;;;4972949;28;20827;-71
2022/03/14 01:22:24;;;;;;;25.77;15.60;;;7.40;98.20;;;;;;4973150;28;20448;-71
2022/03/14 01:24:50;;;;;;;26.80;15.77;;;7.40;98.60;;;;;;4973421;28;20523;-71
2022/03/14 01:27:17;;;;;;;23.37;14.33;;;7.40;98.50;;;;;;4992311;28;20852;-71
2022/03/14 01:29:44;;;;;;;24.80;16.17;;;7.40;98.40;;;;;;4991535;28;20995;-71
2022/03/14 01:32:11;;;;;;;28.10;15.97;;;7.40;98.50;;;;;;4980060;28;20932;-71
2022/03/14 01:34:39;;;;;;;23.90;14.00;;;7.40;98.60;;;;;;4972211;28;20635;-71
2022/03/14 01:37:05;;;;;;;27.90;15.57;;;7.40;98.30;;;;;;4972591;28;20567;-71
2022/03/14 01:39:32;;;;;;;24.27;15.33;;;7.40;98.30;;;;;;4972397;28;20464;-71
2022/03/14 01:41:59;;;;;;;23.90;14.83;;;7.40;98.70;;;;;;4974260;28;20530;-71
2022/03/14 01:44:26;;;;;;;29.43;14.00;;;7.40;98.70;;;;;;4989662;28;20451;-71
2022/03/14 01:46:55;;;;;;;23.90;14.33;;;7.40;98.70;;;;;;4992043;28;20478;-71
2022/03/14 01:49:21;;;;;;;27.10;14.67;;;7.30;98.50;;;;;;4990598;28;20491;-71
2022/03/14 01:51:52;;;;;;;32.47;16.27;;;7.30;99.10;;;;;;4977817;28;20491;-71
2022/03/14 01:54:20;;;;;;;30.73;16.97;;;7.30;99.80;;;;;;4971656;28;20460;-71
2022/03/14 01:56:47;;;;;;;33.13;17.33;;;7.20;99.90;;;;;;4972657;28;20534;-71
2022/03/14 01:59:14;;;;;;;30.67;17.50;;;7.20;99.90;;;;;;4975651;28;20509;-71
2022/03/14 02:01:41;;;;;;;36.83;17.60;;;7.10;99.90;;;;;;4991643;28;20505;-71
2022/03/14 02:04:08;;;;;;;30.33;17.03;;;7.00;99.90;;;;;;4989427;28;20459;-71
2022/03/14 02:06:35;;;;;;;31.43;19.00;;;6.90;99.90;;;;;;4990837;28;20917;-71
2022/03/14 02:09:03;;;;;;;31.10;17.87;;;6.80;99.90;;;;;;4991533;28;20463;-71
2022/03/14 02:11:30;;;;;;;29.90;18.00;;;6.70;99.90;;;;;;4991112;28;20459;-71
2022/03/14 02:13:57;;;;;;;30.83;16.70;;;6.60;99.90;;;;;;4973810;28;20467;-71
2022/03/14 02:16:23;;;;;;;32.60;16.87;;;6.50;99.90;;;;;;4972493;28;20484;-71
2022/03/14 02:18:50;;;;;;;37.10;15.97;;;6.50;99.90;;;;;;4972046;28;20905;-71
2022/03/14 02:21:18;;;;;;;27.83;14.20;;;6.50;99.90;;;;;;4971849;28;20487;-71
2022/03/14 02:23:45;;;;;;;24.47;13.93;;;6.50;99.90;;;;;;4971830;28;20511;-71
2022/03/14 02:26:11;;;;;;;24.50;14.40;;;6.50;99.90;;;;;;4971773;28;20988;-71
2022/03/14 02:28:38;;;;;;;26.23;14.60;;;6.50;99.90;;;;;;4976281;28;20947;-71
2022/03/14 02:31:05;;;;;;;28.13;14.50;;;6.50;99.90;;;;;;4989627;28;21057;-71
2022/03/14 02:33:32;;;;;;;26.73;14.50;;;6.50;99.90;;;;;;4971726;28;20861;-70
2022/03/14 02:35:59;;;;;;;27.23;14.50;;;6.60;99.90;;;;;;4971028;28;20456;-71
2022/03/14 02:38:27;;;;;;;26.27;14.80;;;6.60;99.90;;;;;;4972056;28;20565;-71
2022/03/14 02:40:54;;;;;;;23.80;13.73;;;6.60;99.90;;;;;;4980934;28;20444;-71
2022/03/14 02:43:24;;;;;;;23.60;13.50;;;6.70;99.90;;;;;;4971735;28;20530;-71
2022/03/14 02:45:52;;;;;;;21.33;12.40;;;6.80;99.90;;;;;;4971156;28;20458;-71
2022/03/14 02:48:19;;;;;;;19.30;12.20;;;6.90;99.90;;;;;;4971853;28;20460;-71
2022/03/14 02:50:53;;;;;;;22.03;11.73;;;7.00;99.90;;;;;;4971728;28;20492;-71
2022/03/14 02:53:19;;;;;;;19.00;12.17;;;7.10;99.90;;;;;;4984448;28;20462;-71
2022/03/14 02:55:47;;;;;;;19.20;12.37;;;7.10;99.90;;;;;;4989138;28;20455;-70
2022/03/14 02:58:14;;;;;;;21.60;11.50;;;7.20;99.90;;;;;;4971556;28;20478;-71
2022/03/14 03:00:41;;;;;;;25.73;13.67;;;7.30;99.90;;;;;;4984384;28;20509;-71
2022/03/14 03:03:10;;;;;;;19.90;12.00;;;7.40;99.90;;;;;;4990792;28;20537;-71
2022/03/14 03:05:37;;;;;;;22.57;13.30;;;7.40;99.90;;;;;;4990429;28;21150;-71
2022/03/14 03:08:04;;;;;;;21.60;12.67;;;7.50;99.90;;;;;;4981068;28;20484;-71
2022/03/14 03:10:34;;;;;;;24.10;14.20;;;7.50;99.90;;;;;;4971428;28;20480;-71
2022/03/14 03:13:02;;;;;;;25.43;14.10;;;7.50;99.90;;;;;;4971320;28;20515;-71
2022/03/14 03:15:29;;;;;;;22.10;13.17;;;7.60;99.90;;;;;;4970717;28;20496;-71
2022/03/14 03:17:56;;;;;;;24.13;14.80;;;7.60;99.90;;;;;;4971539;28;20472;-71
2022/03/14 03:20:25;;;;;;;25.73;14.07;;;7.60;99.90;;;;;;4984386;28;20455;-71
2022/03/14 03:22:51;;;;;;;25.33;14.40;;;7.60;99.90;;;;;;4988824;28;20952;-71
2022/03/14 03:25:19;;;;;;;23.87;14.33;;;7.60;99.90;;;;;;4979548;28;20467;-71
2022/03/14 03:27:45;;;;;;;26.77;15.10;;;7.60;99.90;;;;;;4976483;28;20886;-71
2022/03/14 03:30:13;;;;;;;24.00;14.10;;;7.60;99.90;;;;;;4986596;28;21008;-71
2022/03/14 03:32:40;;;;;;;21.90;13.47;;;7.60;99.90;;;;;;4971212;28;20456;-71
2022/03/14 03:35:07;;;;;;;24.70;14.50;;;7.60;99.90;;;;;;4972283;28;20588;-71
2022/03/14 03:37:35;;;;;;;26.23;15.00;;;7.60;99.90;;;;;;4971095;28;20506;-71
2022/03/14 03:40:01;;;;;;;27.53;14.13;;;7.60;99.90;;;;;;4976620;28;20463;-71
2022/03/14 03:42:28;;;;;;;29.73;15.50;;;7.60;99.90;;;;;;4980258;28;20538;-71
2022/03/14 03:44:55;;;;;;;23.50;14.60;;;7.60;99.90;;;;;;4974614;28;21000;-71
2022/03/14 03:47:24;;;;;;;24.23;14.23;;;7.60;99.90;;;;;;4987212;28;20471;-71
2022/03/14 03:49:50;;;;;;;22.67;13.83;;;7.60;99.90;;;;;;4978471;28;20491;-71
2022/03/14 03:52:17;;;;;;;29.13;16.33;;;7.50;99.90;;;;;;4974487;28;20494;-71
2022/03/14 03:54:43;;;;;;;28.33;15.70;;;7.40;99.90;;;;;;4974288;28;20456;-71
2022/03/14 03:57:10;;;;;;;22.97;15.00;;;7.30;99.90;;;;;;4979646;28;21004;-71
2022/03/14 03:59:37;;;;;;;27.67;15.43;;;7.30;99.90;;;;;;4974757;28;20491;-71
2022/03/14 04:02:05;;;;;;;24.20;14.93;;;7.30;99.90;;;;;;4976728;28;20461;-71
2022/03/14 04:04:33;;;;;;;28.93;14.80;;;7.30;99.90;;;;;;4992355;28;20908;-71
2022/03/14 04:07:00;;;;;;;25.90;15.60;;;7.30;99.90;;;;;;4991727;28;20892;-71
2022/03/14 04:09:27;;;;;;;29.67;14.53;;;7.30;99.90;;;;;;4974221;28;20522;-71
2022/03/14 04:11:53;;;;;;;28.80;15.33;;;7.30;99.90;;;;;;4973869;28;20480;-71
2022/03/14 04:14:21;;;;;;;28.93;16.10;;;7.30;99.90;;;;;;4974122;28;20574;-71
2022/03/14 04:16:48;;;;;;;29.23;15.33;;;7.30;99.90;;;;;;4973877;28;20575;-71
2022/03/14 04:19:16;;;;;;;27.03;15.07;;;7.30;99.90;;;;;;4974121;28;20456;-71
2022/03/14 04:21:45;;;;;;;27.23;15.43;;;7.30;99.90;;;;;;4974218;28;20805;-71
2022/03/14 04:24:11;;;;;;;26.93;14.50;;;7.30;99.90;;;;;;4982755;28;20463;-71
2022/03/14 04:26:38;;;;;;;26.17;15.17;;;7.30;99.90;;;;;;4974093;28;20922;-71
2022/03/14 04:29:05;;;;;;;31.17;16.90;;;7.30;99.90;;;;;;4974912;28;20460;-71
2022/03/14 04:31:32;;;;;;;36.23;16.53;;;7.30;99.90;;;;;;4976542;28;20498;-71
2022/03/14 04:33:59;;;;;;;38.70;16.57;;;7.30;99.90;;;;;;4990640;28;20591;-71
2022/03/14 04:36:26;;;;;;;30.50;15.90;;;7.30;99.90;;;;;;4973689;28;20550;-71
2022/03/14 04:38:53;;;;;;;32.47;16.07;;;7.30;99.90;;;;;;4973594;28;20452;-71
2022/03/14 04:41:21;;;;;;;32.20;16.80;;;7.30;99.90;;;;;;4971621;28;20448;-71
2022/03/14 04:43:47;;;;;;;39.57;17.17;;;7.30;99.90;;;;;;4973635;28;20467;-71
2022/03/14 04:46:14;;;;;;;37.97;17.70;;;7.30;99.90;;;;;;4985455;28;20475;-72
2022/03/14 04:48:41;;;;;;;33.90;18.70;;;7.30;99.90;;;;;;4993065;28;20506;-71
2022/03/14 04:51:08;;;;;;;29.77;17.60;;;7.30;99.90;;;;;;4991941;28;20491;-71
2022/03/14 04:53:36;;;;;;;30.07;17.63;;;7.30;99.90;;;;;;4990074;28;20570;-71
2022/03/14 04:56:04;;;;;;;33.13;17.90;;;7.30;99.90;;;;;;4973263;28;20535;-71
2022/03/14 04:58:31;;;;;;;28.87;17.77;;;7.30;99.90;;;;;;4973553;28;20547;-71
2022/03/14 05:00:58;;;;;;;37.17;17.93;;;7.20;99.90;;;;;;4973549;28;20448;-71
2022/03/14 05:03:25;;;;;;;33.47;18.37;;;7.20;99.90;;;;;;4972993;28;20456;-71
2022/03/14 05:05:52;;;;;;;33.13;19.00;;;7.20;99.90;;;;;;4972877;28;20510;-71
2022/03/14 05:08:18;;;;;;;31.97;17.93;;;7.20;99.90;;;;;;4973034;28;20456;-71
2022/03/14 05:10:45;;;;;;;34.03;18.87;;;7.10;99.90;;;;;;4973211;28;20853;-71
2022/03/14 05:13:13;;;;;;;38.10;19.30;;;7.10;99.90;;;;;;4973229;28;20468;-72
2022/03/14 05:15:40;;;;;;;33.03;18.90;;;7.00;99.90;;;;;;4972698;28;20857;-71
2022/03/14 05:18:07;;;;;;;32.60;18.13;;;7.00;99.90;;;;;;4972846;28;21179;-72
2022/03/14 05:20:36;;;;;;;36.60;19.77;;;6.90;99.90;;;;;;4972660;28;20458;-72
2022/03/14 05:23:03;;;;;;;37.33;19.50;;;6.90;99.90;;;;;;4972762;28;20466;-72
2022/03/14 05:25:30;;;;;;;32.60;19.20;;;6.80;99.90;;;;;;4982265;28;20461;-72
2022/03/14 05:27:57;;;;;;;33.50;19.07;;;6.80;99.90;;;;;;4991873;28;20925;-72
2022/03/14 05:30:26;;;;;;;33.00;18.30;;;6.80;99.90;;;;;;4982737;28;20511;-72
2022/03/14 05:32:53;;;;;;;35.27;18.30;;;6.70;99.90;;;;;;4972192;28;20462;-72
2022/03/14 05:35:19;;;;;;;37.70;18.53;;;6.60;99.90;;;;;;4974015;28;20929;-72
2022/03/14 05:37:47;;;;;;;40.20;18.93;;;6.60;99.90;;;;;;4992037;28;20510;-72
2022/03/14 05:40:15;;;;;;;31.17;17.70;;;6.50;99.90;;;;;;4991832;28;20463;-72
2022/03/14 05:42:43;;;;;;;35.37;18.70;;;6.50;99.90;;;;;;4976568;28;20456;-72
2022/03/14 05:45:10;;;;;;;36.20;19.33;;;6.50;99.90;;;;;;4972480;28;20609;-72
2022/03/14 05:47:38;;;;;;;36.37;19.50;;;6.40;99.90;;;;;;4972376;28;20472;-71
2022/03/14 05:50:06;;;;;;;36.63;18.87;;;6.40;99.90;;;;;;4973654;28;20452;-72
2022/03/14 05:52:33;;;;;;;32.93;17.50;;;6.30;99.90;;;;;;4972046;28;20487;-71
2022/03/14 05:55:00;;;;;;;39.97;19.17;;;6.30;99.90;;;;;;4972160;28;20523;-72
2022/03/14 05:57:26;;;;;;;49.10;20.90;;;6.20;99.90;;;;;;4972111;28;20895;-72
2022/03/14 05:59:53;;;;;;;48.33;19.30;;;6.30;99.90;;;;;;4972029;28;20456;-72
2022/03/14 06:02:21;;;;;;;41.80;18.30;;;6.30;99.90;;;;;;4971250;28;21101;-72
2022/03/14 06:04:50;;;;;;;29.23;17.57;;;6.20;99.90;;;;;;4985566;28;20462;-72
2022/03/14 06:07:16;;;;;;;32.60;19.03;;;6.10;99.90;;;;;;4991710;28;20467;-72
2022/03/14 06:09:43;;;;;;;31.23;17.47;;;6.10;99.90;;;;;;4991578;28;20831;-71
2022/03/14 06:12:11;;;;;;;37.87;20.07;;;6.00;99.90;;;;;;4991378;28;20899;-72
2022/03/14 06:14:38;;;;;;;36.00;19.80;;;5.90;99.90;;;;;;4989949;28;20459;-72
2022/03/14 06:17:05;;;;;;;42.13;20.60;;;5.90;99.90;;;;;;4952560;28;20473;-72
2022/03/14 06:19:32;;;;;;;54.30;21.53;;;5.90;99.90;;;;;;4982809;28;20959;-72
2022/03/14 06:22:00;;;;;;;49.07;21.50;;;5.90;99.90;;;;;;4952777;29;20457;-72
2022/03/14 06:24:26;;;;;;;53.20;24.03;;;6.00;99.90;;;;;;4956532;28;20456;-71
2022/03/14 06:26:53;;;;;;;49.80;23.10;;;6.00;99.90;;;;;;4971761;28;20902;-71
2022/03/14 06:29:20;;;;;;;58.73;22.30;;;6.00;99.90;;;;;;4988395;28;20463;-71
2022/03/14 06:31:47;;;;;;;62.90;24.30;;;6.10;99.90;;;;;;4990717;28;20483;-71
2022/03/14 06:34:15;;;;;;;46.57;21.70;;;6.10;99.90;;;;;;4980428;28;20566;-71
2022/03/14 06:36:42;;;;;;;48.83;22.47;;;6.10;99.90;;;;;;4971582;28;20491;-71
2022/03/14 06:39:10;;;;;;;49.23;21.17;;;6.10;99.90;;;;;;4979754;28;20465;-71
2022/03/14 06:41:39;;;;;;;50.87;23.03;;;6.20;99.90;;;;;;4983988;28;20452;-71
2022/03/14 06:44:06;;;;;;;41.20;20.40;;;6.10;99.90;;;;;;4971177;28;20531;-71
2022/03/14 06:46:33;;;;;;;59.07;23.07;;;6.10;99.90;;;;;;4971167;28;20539;-71
2022/03/14 06:48:59;;;;;;;48.93;22.10;;;6.20;99.90;;;;;;4977609;28;20455;-70
2022/03/14 06:51:26;;;;;;;50.80;21.70;;;6.20;99.90;;;;;;4990184;28;20490;-71
2022/03/14 06:53:53;;;;;;;44.17;20.97;;;6.20;99.90;;;;;;4990641;28;20466;-71
2022/03/14 06:56:21;;;;;;;54.17;21.77;;;6.20;99.90;;;;;;4988936;28;20487;-71
2022/03/14 06:58:48;;;;;;;34.40;19.80;;;6.20;99.90;;;;;;4985517;28;20602;-71
2022/03/14 07:01:15;;;;;;;48.87;22.80;;;6.20;99.90;;;;;;4971477;28;21011;-72
2022/03/14 07:03:41;;;;;;;42.20;21.00;;;6.10;99.90;;;;;;4971449;28;20502;-72
2022/03/14 07:06:08;;;;;;;46.00;23.20;;;6.20;99.90;;;;;;4968617;28;20490;-73
2022/03/14 07:08:34;;;;;;;43.07;21.63;;;6.20;99.90;;;;;;4973369;28;20525;-72
2022/03/14 07:11:01;;;;;;;48.30;23.60;;;6.20;99.90;;;;;;4971168;28;20479;-72
2022/03/14 07:13:29;;;;;;;41.43;22.13;;;6.20;99.90;;;;;;4972261;28;20502;-71
2022/03/14 07:15:56;;;;;;;41.17;21.53;;;6.30;99.90;;;;;;4975584;28;20506;-71
2022/03/14 07:18:22;;;;;;;45.33;24.03;;;6.30;99.90;;;;;;4974341;28;20872;-72
2022/03/14 07:20:49;;;;;;;37.90;21.53;;;6.30;99.90;;;;;;4973776;28;20542;-71
2022/03/14 07:23:16;;;;;;;43.47;21.83;;;6.30;99.90;;;;;;4980019;28;20467;-72
2022/03/14 07:25:42;;;;;;;42.50;22.60;;;6.30;99.90;;;;;;4970678;28;20455;-73
2022/03/14 07:28:10;;;;;;;55.23;23.10;;;6.30;99.90;;;;;;4974471;28;20460;-72
2022/03/14 07:30:39;;;;;;;46.23;21.53;;;6.40;99.90;;;;;;4993478;28;21173;-74
2022/03/14 07:33:06;;;;;;;50.40;22.43;;;6.50;99.90;;;;;;4993050;28;20490;-73
2022/03/14 07:35:36;;;;;;;43.93;20.87;;;6.60;99.90;;;;;;4978515;28;20452;-72
2022/03/14 07:38:03;;;;;;;50.67;20.70;;;6.60;99.90;;;;;;4974625;28;20572;-71
2022/03/14 07:40:30;;;;;;;44.53;20.80;;;6.60;99.90;;;;;;4978858;28;20490;-71
2022/03/14 07:42:58;;;;;;;42.60;21.90;;;6.60;99.90;;;;;;4980165;28;20448;-72
2022/03/14 07:45:26;;;;;;;44.27;21.47;;;6.60;99.90;;;;;;4970854;28;20565;-71
2022/03/14 07:47:55;;;;;;;45.00;20.10;;;6.60;99.90;;;;;;4973432;28;20980;-71
2022/03/14 07:50:22;;;;;;;43.73;20.67;;;6.50;99.90;;;;;;4975773;28;20456;-72
2022/03/14 07:52:49;;;;;;;38.17;19.30;;;6.60;99.90;;;;;;4974000;28;20551;-72
2022/03/14 07:55:16;;;;;;;36.27;20.40;;;6.60;99.90;;;;;;4976807;28;20450;-71
2022/03/14 07:57:44;;;;;;;43.33;19.23;;;6.70;99.90;;;;;;4990619;28;20480;-71
2022/03/14 08:00:13;;;;;;;33.77;19.53;;;6.80;99.90;;;;;;4977102;28;20468;-72
2022/03/14 08:02:40;;;;;;;34.37;20.20;;;6.90;99.90;;;;;;4974166;28;20507;-72
2022/03/14 08:05:13;;;;;;;34.23;20.07;;;7.00;99.90;;;;;;4989289;28;20857;-70
2022/03/14 08:07:41;;;;;;;28.70;17.83;;;7.00;99.90;;;;;;4987283;28;20987;-70
2022/03/14 08:10:09;;;;;;;35.20;16.40;;;7.10;99.90;;;;;;4974072;28;20465;-71
2022/03/14 08:12:45;;;;;;;20.90;11.00;;;7.30;99.90;;;;;;4973562;28;20874;-71
2022/03/14 08:15:12;;;;;;;12.87;6.80;;;7.40;99.90;;;;;;4975620;28;20463;-71
2022/03/14 08:17:39;;;;;;;18.27;10.27;;;7.50;99.90;;;;;;4974596;28;20887;-70
2022/03/14 08:20:08;;;;;;;6.03;4.40;;;7.70;99.90;;;;;;4974412;28;20871;-71
2022/03/14 08:22:35;;;;;;;6.63;4.30;;;7.80;99.90;;;;;;4971061;28;20452;-71
2022/03/14 08:25:02;;;;;;;6.17;4.30;;;7.90;99.90;;;;;;4977256;28;20451;-70
2022/03/14 08:27:29;;;;;;;8.70;3.50;;;8.00;99.90;;;;;;4992382;28;20485;-71
2022/03/14 08:29:55;;;;;;;4.30;3.53;;;8.00;99.90;;;;;;4975170;28;20510;-71
2022/03/14 08:32:24;;;;;;;7.30;3.70;;;8.10;99.90;;;;;;4972821;28;20519;-70
2022/03/14 08:34:52;;;;;;;4.47;3.40;;;8.10;99.90;;;;;;4972314;28;20452;-71
2022/03/14 08:37:20;;;;;;;4.07;3.47;;;8.20;99.90;;;;;;4972201;28;20479;-70
2022/03/14 08:39:48;;;;;;;5.90;3.37;;;8.30;99.90;;;;;;4975348;28;20456;-70
2022/03/14 08:42:15;;;;;;;6.33;3.63;;;8.30;99.90;;;;;;4975800;28;20486;-70
2022/03/14 08:44:41;;;;;;;7.03;3.77;;;8.30;99.90;;;;;;4989078;28;20451;-70
2022/03/14 08:47:08;;;;;;;6.43;4.00;;;8.30;99.90;;;;;;4989618;28;20526;-70
2022/03/14 08:49:35;;;;;;;7.67;3.73;;;8.40;99.90;;;;;;4991037;28;20455;-70
2022/03/14 08:52:02;;;;;;;3.90;3.27;;;8.40;99.90;;;;;;4990560;28;20487;-70
2022/03/14 08:54:30;;;;;;;6.03;3.67;;;8.50;99.90;;;;;;4979011;28;20456;-70
2022/03/14 08:56:57;;;;;;;6.70;3.90;;;8.40;99.90;;;;;;4972003;28;20912;-71
2022/03/14 08:59:24;;;;;;;4.90;3.50;;;8.40;99.90;;;;;;4982782;28;20456;-71
2022/03/14 09:01:51;;;;;;;5.40;3.93;;;8.50;99.90;;;;;;4991272;28;20986;-70
2022/03/14 09:04:17;;;;;;;5.73;3.77;;;8.40;99.90;;;;;;4986983;28;20458;-71
2022/03/14 09:06:45;;;;;;;4.80;3.37;;;8.50;99.90;;;;;;4971496;28;20539;-70
2022/03/14 09:09:12;;;;;;;5.80;3.10;;;8.40;99.90;;;;;;4972422;28;20479;-72
2022/03/14 09:11:40;;;;;;;8.57;3.60;;;8.50;99.90;;;;;;4974902;28;20498;-72
2022/03/14 09:14:07;;;;;;;5.90;4.23;;;8.50;99.90;;;;;;4982933;28;20879;-71
2022/03/14 09:16:35;;;;;;;4.83;3.80;;;8.50;99.90;;;;;;4990336;28;20831;-71
2022/03/14 09:19:01;;;;;;;4.00;3.60;;;8.60;99.90;;;;;;4985418;28;20462;-72
2022/03/14 09:21:30;;;;;;;8.93;3.87;;;8.60;99.90;;;;;;4969583;28;20899;-71
2022/03/14 09:23:56;;;;;;;6.37;3.57;;;8.60;99.90;;;;;;4971580;28;20464;-71
2022/03/14 09:26:23;;;;;;;4.50;3.13;;;8.60;99.90;;;;;;4952973;28;20505;-71
2022/03/14 09:28:51;;;;;;;7.23;3.13;;;8.60;99.90;;;;;;4970208;28;20459;-72
2022/03/14 09:31:19;;;;;;;10.63;3.60;;;8.60;99.90;;;;;;4971407;28;20463;-70
2022/03/14 09:33:46;;;;;;;6.40;3.60;;;8.70;99.90;;;;;;4970997;28;20444;-71
2022/03/14 09:36:12;;;;;;;7.20;3.23;;;8.60;99.90;;;;;;4971596;28;20474;-71
2022/03/14 09:38:39;;;;;;;5.70;3.33;;;8.70;99.90;;;;;;4971855;28;20452;-73
2022/03/14 09:41:06;;;;;;;10.53;3.73;;;8.70;99.90;;;;;;4971583;28;20580;-71
2022/03/14 09:43:39;;;;;;;7.83;3.20;;;8.70;99.90;;;;;;4979232;28;21186;-71
2022/03/14 09:46:08;;;;;;;6.37;3.50;;;8.70;99.90;;;;;;4978676;28;20579;-71
2022/03/14 09:48:37;;;;;;;7.03;3.37;;;8.70;99.90;;;;;;4971557;28;20527;-72
2022/03/14 09:51:04;;;;;;;13.13;3.40;;;8.70;99.90;;;;;;4978141;28;20546;-73
2022/03/14 09:53:33;;;;;;;6.33;3.67;;;8.80;99.90;;;;;;4981033;28;20525;-73
2022/03/14 09:56:00;;;;;;;5.20;3.10;;;8.80;99.90;;;;;;4972774;28;20949;-72
2022/03/14 09:58:26;;;;;;;4.43;3.10;;;8.80;99.90;;;;;;4971853;28;20447;-72
2022/03/14 10:00:54;;;;;;;8.73;4.03;;;8.90;99.90;;;;;;4973125;28;21168;-72
2022/03/14 10:03:23;;;;;;;9.23;3.63;;;8.90;99.90;;;;;;4982512;28;20467;-72
2022/03/14 10:05:51;;;;;;;4.93;3.20;;;9.00;99.90;;;;;;4971415;28;20838;-72
2022/03/14 10:08:18;;;;;;;5.47;3.20;;;9.10;99.90;;;;;;4972374;28;20945;-71
2022/03/14 10:10:45;;;;;;;2.83;2.50;;;9.20;99.90;;;;;;4972304;28;20818;-71
2022/03/14 10:13:14;;;;;;;5.13;2.90;;;9.30;99.90;;;;;;4978545;28;20490;-70
2022/03/14 10:15:42;;;;;;;7.27;3.07;;;9.40;99.90;;;;;;4975754;28;20463;-70
2022/03/14 10:18:12;;;;;;;6.37;2.97;;;9.60;99.90;;;;;;4985101;28;20460;-71
2022/03/14 10:20:55;;;;;;;9.00;2.50;;;9.80;99.90;;;;;;4991252;28;20451;-70
2022/03/14 10:23:33;;;;;;;8.47;3.50;;;10.00;99.90;;;;;;4989597;28;20849;-71
2022/03/14 10:26:00;;;;;;;9.13;3.03;;;10.20;99.90;;;;;;4974677;28;20531;-71
2022/03/14 10:28:31;;;;;;;5.53;3.00;;;10.30;99.90;;;;;;4971468;28;20452;-70
2022/03/14 10:31:01;;;;;;;3.83;3.03;;;10.30;99.90;;;;;;4972194;28;20484;-71
2022/03/14 10:33:30;;;;;;;10.80;3.90;;;10.20;99.90;;;;;;4970227;28;20571;-70
2022/03/14 10:35:59;;;;;;;7.60;4.07;;;10.10;99.90;;;;;;4974362;28;20451;-70
2022/03/14 10:38:26;;;;;;;9.47;4.07;;;10.10;99.90;;;;;;4974062;28;20570;-70
2022/03/14 10:40:56;;;;;;;10.07;4.50;;;10.10;99.90;;;;;;4990569;28;20455;-70
2022/03/14 10:43:25;;;;;;;18.17;5.33;;;10.10;99.90;;;;;;4970345;28;20457;-70
2022/03/14 10:45:52;;;;;;;8.93;4.07;;;10.20;99.90;;;;;;4970283;28;20547;-70
2022/03/14 10:48:32;;;;;;;6.50;2.87;;;10.40;99.90;;;;;;4981334;28;20807;-70
2022/03/14 10:51:04;;;;;;;6.87;2.63;;;10.70;99.90;;;;;;4985171;28;20984;-70
2022/03/14 10:53:31;;;;;;;3.47;2.33;;;10.90;99.90;;;;;;4977855;28;20495;-70
2022/03/14 10:55:59;;;;;;;13.40;6.83;;;11.20;99.90;;;;;;4974588;28;20475;-70
2022/03/14 10:58:30;;;;;;;4.20;3.73;;;11.50;99.90;;;;;;4975890;28;20547;-70
2022/03/14 11:00:59;;;;;;;6.67;3.50;;;11.50;99.90;;;;;;4986318;28;20464;-70
2022/03/14 11:03:27;;;;;;;3.73;2.10;;;11.60;99.90;;;;;;4993102;28;20462;-70
2022/03/14 11:05:58;;;;;;;7.37;2.43;;;11.40;99.90;;;;;;4989140;28;20988;-69
2022/03/14 11:08:34;;;;;;;4.33;2.40;;;11.40;99.90;;;;;;4975491;28;20466;-70
2022/03/14 11:11:02;;;;;;;2.50;2.03;;;11.40;99.90;;;;;;4975431;28;20459;-70
2022/03/14 11:13:29;;;;;;;5.53;2.30;;;11.20;99.90;;;;;;4986346;28;20487;-70
2022/03/14 11:15:57;;;;;;;3.60;2.10;;;11.40;99.90;;;;;;4975181;28;20740;-71
2022/03/14 11:18:24;;;;;;;8.33;2.23;;;11.60;99.90;;;;;;4975782;28;20456;-70
2022/03/14 11:20:52;;;;;;;6.80;2.10;;;11.60;99.90;;;;;;4974637;28;20987;-70
2022/03/14 11:23:20;;;;;;;9.03;2.20;;;11.50;99.90;;;;;;4986814;28;20463;-70
2022/03/14 11:25:49;;;;;;;6.47;2.37;;;11.50;99.90;;;;;;4975285;28;20527;-71
2022/03/14 11:28:17;;;;;;;2.60;2.00;;;11.50;99.90;;;;;;4974854;28;20460;-70
2022/03/14 11:30:53;;;;;;;3.13;2.20;;;11.60;99.90;;;;;;4977057;28;20878;-70
2022/03/14 11:33:21;;;;;;;9.97;2.20;;;11.70;99.90;;;;;;4971623;28;20487;-71
2022/03/14 11:35:47;;;;;;;4.17;2.20;;;12.00;99.90;;;;;;4989617;28;20467;-72
2022/03/14 11:38:16;;;;;;;3.20;2.10;;;12.10;99.90;;;;;;4992866;28;20529;-73
2022/03/14 11:40:43;;;;;;;4.57;2.13;;;12.20;99.90;;;;;;4981542;28;20458;-73
2022/03/14 11:43:11;;;;;;;5.67;1.93;;;12.10;99.90;;;;;;4987945;28;20467;-71
2022/03/14 11:45:39;;;;;;;3.50;2.20;;;12.00;99.90;;;;;;4992276;28;20451;-73
2022/03/14 11:48:06;;;;;;;2.90;1.93;;;11.80;99.90;;;;;;4993719;28;20470;-72
2022/03/14 11:50:44;;;;;;;5.63;2.37;;;11.70;99.90;;;;;;4994520;28;20482;-73
2022/03/14 11:53:17;;;;;;;3.93;1.97;;;11.40;99.90;;;;;;4976381;28;20498;-70
2022/03/14 11:55:52;;;;;;;6.73;2.40;;;11.40;99.90;;;;;;4975325;28;20456;-70
2022/03/14 11:58:35;;;;;;;4.47;2.40;;;11.30;99.90;;;;;;4981476;28;20504;-70
2022/03/14 12:01:20;;;;;;;3.00;2.20;;;11.40;99.90;;;;;;4973130;28;20459;-70
2022/03/14 12:03:49;;;;;;;5.60;2.40;;;11.30;99.90;;;;;;4987078;28;20486;-73
2022/03/14 12:06:16;;;;;;;4.40;1.87;;;11.30;99.90;;;;;;4993015;28;20574;-74
2022/03/14 12:09:01;;;;;;;3.03;2.07;;;11.20;99.90;;;;;;4990684;28;20807;-74
2022/03/14 12:11:40;;;;;;;4.70;3.00;;;11.20;99.90;;;;;;4968002;28;20447;-73
2022/03/14 12:14:13;;;;;;;4.13;2.50;;;11.20;99.90;;;;;;4972991;28;20483;-75
2022/03/14 12:16:42;;;;;;;2.10;1.90;;;11.30;99.90;;;;;;4975715;28;20464;-74
2022/03/14 12:19:28;;;;;;;2.63;1.97;;;11.40;99.90;;;;;;4983774;28;20452;-74
2022/03/14 12:21:57;;;;;;;3.30;2.43;;;11.60;99.90;;;;;;4974157;28;20451;-73
2022/03/14 12:24:48;;;;;;;6.30;2.17;;;12.10;99.90;;;;;;4983171;28;20464;-73
2022/03/14 12:27:20;;;;;;;3.87;1.90;;;12.30;99.90;;;;;;4974408;28;20538;-73
2022/03/14 12:29:49;;;;;;;3.80;2.00;;;12.20;99.90;;;;;;4978708;28;20538;-71
2022/03/14 12:32:31;;;;;;;3.10;2.10;;;12.00;99.90;;;;;;4985727;28;20546;-71
2022/03/14 12:35:05;;;;;;;2.27;1.83;;;11.80;99.90;;;;;;4976604;28;20444;-70
2022/03/14 12:37:40;;;;;;;3.40;2.10;;;11.60;99.90;;;;;;4973903;28;20475;-71
2022/03/14 12:40:08;;;;;;;2.00;1.90;;;11.40;99.90;;;;;;4965529;28;20539;-71
2022/03/14 12:42:40;;;;;;;2.30;1.97;;;11.30;99.90;;;;;;4978427;28;20520;-73
2022/03/14 12:45:22;;;;;;;2.00;1.80;;;11.10;99.90;;;;;;4972865;28;20832;-73